Time;durP1;ratioP1;P1;durP2;ratioP2;P2;SDS_P1;SDS_P2;PMS_P1;PMS_P2;Temp;Humidity;BMP_temperature;BMP_pressure;BME280_temperature;BME280_humidity;BME280_pressure;Samples;Min_cycle;Max_cycle;Signal;HPM_P1;HPM_P2
2021/03/26 00:01:49;;;;;;;31.05;21.27;;;6.80;99.90;;;;;;10369941;28;20661;-78
2021/03/26 00:06:51;;;;;;;33.92;20.98;;;6.70;99.90;;;;;;10369738;28;20049;-78
2021/03/26 00:11:56;;;;;;;27.83;19.83;;;6.60;99.90;;;;;;10369208;28;20054;-78
2021/03/26 00:16:58;;;;;;;34.83;21.02;;;6.60;99.90;;;;;;10369284;28;20097;-78
2021/03/26 00:22:00;;;;;;;34.35;20.67;;;6.50;99.90;;;;;;10368969;28;20100;-78
2021/03/26 00:27:02;;;;;;;29.45;19.30;;;6.50;99.90;;;;;;10368435;28;20089;-78
2021/03/26 00:32:04;;;;;;;34.13;22.02;;;6.60;99.90;;;;;;10351435;28;20403;-78
2021/03/26 00:37:06;;;;;;;32.63;21.02;;;6.60;99.90;;;;;;10368414;28;20109;-78
2021/03/26 00:42:07;;;;;;;38.35;22.45;;;6.70;99.90;;;;;;10368291;28;20073;-78
2021/03/26 00:47:09;;;;;;;31.83;20.20;;;6.60;99.90;;;;;;10368301;28;20109;-78
2021/03/26 00:52:11;;;;;;;37.67;22.90;;;6.70;99.90;;;;;;10368013;28;20065;-78
2021/03/26 00:57:12;;;;;;;58.40;35.72;;;6.80;99.90;;;;;;10367705;28;20217;-78
2021/03/26 01:02:17;;;;;;;37.67;22.60;;;6.80;99.90;;;;;;10366950;28;20042;-78
2021/03/26 01:07:19;;;;;;;32.58;21.40;;;6.80;99.90;;;;;;10366520;28;20104;-78
2021/03/26 01:12:20;;;;;;;34.47;21.05;;;6.80;99.90;;;;;;10366782;28;20160;-78
2021/03/26 01:17:21;;;;;;;32.10;20.90;;;6.80;99.90;;;;;;10367197;28;20061;-78
2021/03/26 01:22:23;;;;;;;31.73;20.27;;;6.90;99.90;;;;;;10381929;28;20039;-78
2021/03/26 01:27:24;;;;;;;37.53;20.65;;;6.90;99.90;;;;;;10366945;28;20065;-77
2021/03/26 01:32:36;;;;;;;33.60;20.77;;;7.00;99.90;;;;;;10366745;28;20062;-78
2021/03/26 01:37:40;;;;;;;28.65;19.52;;;7.00;99.90;;;;;;10365248;28;20081;-78
2021/03/26 01:42:41;;;;;;;31.15;19.55;;;7.10;99.90;;;;;;10366230;28;20093;-78
2021/03/26 01:47:44;;;;;;;30.30;20.15;;;7.10;99.90;;;;;;10366363;28;20053;-78
2021/03/26 01:52:46;;;;;;;32.53;20.00;;;7.10;99.90;;;;;;10367128;28;20060;-78
2021/03/26 01:57:48;;;;;;;27.55;19.13;;;7.00;99.90;;;;;;10367042;28;20064;-77
2021/03/26 02:03:28;;;;;;;28.95;19.42;;;7.10;99.90;;;;;;10366289;28;20048;-78
2021/03/26 02:08:40;;;;;;;34.15;19.75;;;7.10;99.90;;;;;;10339547;28;20104;-78
2021/03/26 02:13:42;;;;;;;29.88;19.20;;;7.10;99.90;;;;;;10363047;28;20108;-78
2021/03/26 02:18:45;;;;;;;31.33;19.02;;;7.00;99.90;;;;;;10347125;28;20046;-78
2021/03/26 02:23:48;;;;;;;32.72;21.20;;;7.00;99.90;;;;;;10365306;28;20048;-78
2021/03/26 02:28:51;;;;;;;36.00;21.15;;;6.80;99.90;;;;;;10364804;28;20566;-78
2021/03/26 02:33:53;;;;;;;33.38;21.02;;;6.70;99.90;;;;;;10364536;28;20081;-78
2021/03/26 02:38:58;;;;;;;30.83;20.63;;;6.60;99.90;;;;;;10346943;28;20416;-78
2021/03/26 02:44:42;;;;;;;29.23;19.63;;;6.50;99.90;;;;;;10364126;28;20050;-78
2021/03/26 02:50:02;;;;;;;31.67;20.08;;;6.40;99.90;;;;;;10346658;28;20069;-78
2021/03/26 02:55:17;;;;;;;34.13;20.85;;;6.40;99.90;;;;;;10363945;28;20053;-78
2021/03/26 03:00:29;;;;;;;30.90;20.08;;;6.20;99.90;;;;;;10362719;28;20132;-78
2021/03/26 03:05:45;;;;;;;31.67;19.35;;;6.30;99.90;;;;;;10371253;28;20676;-78
2021/03/26 03:10:52;;;;;;;30.55;19.90;;;6.40;99.90;;;;;;10371297;28;20128;-78
2021/03/26 03:16:10;;;;;;;28.67;19.92;;;6.40;99.90;;;;;;10370858;28;20061;-77
2021/03/26 03:21:24;;;;;;;30.70;19.38;;;6.40;99.90;;;;;;10358551;28;20050;-78
2021/03/26 03:26:33;;;;;;;33.78;19.80;;;6.30;99.90;;;;;;10364628;28;20105;-78
2021/03/26 03:31:43;;;;;;;29.35;19.33;;;6.20;99.90;;;;;;10370974;28;20101;-78
2021/03/26 03:36:51;;;;;;;35.28;21.45;;;6.10;99.90;;;;;;10329862;28;20050;-78
2021/03/26 03:42:24;;;;;;;30.73;19.02;;;6.10;99.90;;;;;;10366322;28;20054;-78
2021/03/26 03:47:54;;;;;;;32.95;19.25;;;6.10;99.90;;;;;;10370559;28;20082;-78
2021/03/26 03:53:07;;;;;;;30.50;20.00;;;6.30;99.90;;;;;;10352991;28;20061;-78
2021/03/26 03:58:27;;;;;;;34.47;20.20;;;6.30;99.90;;;;;;10370499;28;20112;-77
2021/03/26 04:03:59;;;;;;;32.30;21.23;;;6.40;99.90;;;;;;10361012;28;20053;-78
2021/03/26 04:09:08;;;;;;;30.58;21.33;;;6.20;99.90;;;;;;10341349;28;20311;-78
2021/03/26 04:14:38;;;;;;;33.80;20.27;;;6.00;99.90;;;;;;10370555;28;20065;-78
2021/03/26 04:19:46;;;;;;;32.97;20.65;;;5.80;99.90;;;;;;10371166;28;20050;-77
2021/03/26 04:25:01;;;;;;;33.13;21.23;;;5.80;99.90;;;;;;10353316;28;20073;-78
2021/03/26 04:30:10;;;;;;;35.05;22.08;;;5.60;99.90;;;;;;10370253;28;20073;-78
2021/03/26 04:35:13;;;;;;;31.35;20.25;;;5.60;99.90;;;;;;10370180;28;20069;-78
2021/03/26 04:40:26;;;;;;;32.75;20.50;;;5.40;99.90;;;;;;10369468;28;20108;-78
2021/03/26 04:46:09;;;;;;;31.95;19.25;;;5.50;99.90;;;;;;10369436;28;20444;-78
2021/03/26 04:51:25;;;;;;;34.58;20.42;;;5.50;99.90;;;;;;10351512;28;20085;-77
2021/03/26 04:56:31;;;;;;;30.38;19.83;;;5.40;99.90;;;;;;10383282;28;20073;-77
2021/03/26 05:01:35;;;;;;;31.80;19.92;;;5.40;99.90;;;;;;10350489;28;20089;-78
2021/03/26 05:06:43;;;;;;;32.97;18.90;;;5.40;99.90;;;;;;10368519;28;20045;-78
2021/03/26 05:11:49;;;;;;;34.33;19.75;;;5.40;99.90;;;;;;10367856;28;20410;-77
2021/03/26 05:17:07;;;;;;;34.38;20.50;;;5.40;99.90;;;;;;10367826;28;20112;-77
2021/03/26 05:22:40;;;;;;;27.70;17.55;;;5.20;99.90;;;;;;10367806;28;20074;-77
2021/03/26 05:27:44;;;;;;;30.52;19.77;;;5.20;99.90;;;;;;10353705;28;20046;-78
2021/03/26 05:32:51;;;;;;;32.75;20.80;;;5.10;99.90;;;;;;10367245;28;20056;-78
2021/03/26 05:38:00;;;;;;;32.42;21.00;;;4.90;99.90;;;;;;10349904;28;20050;-78
2021/03/26 05:43:43;;;;;;;31.10;20.17;;;4.80;99.90;;;;;;10366861;28;20053;-78
2021/03/26 05:49:53;;;;;;;34.83;22.08;;;4.80;99.90;;;;;;10340857;28;20156;-78
2021/03/26 05:55:06;;;;;;;36.17;21.55;;;4.70;99.90;;;;;;10240682;29;20055;-77
2021/03/26 06:00:29;;;;;;;41.03;23.42;;;4.70;99.90;;;;;;10335228;28;20077;-78
2021/03/26 06:06:05;;;;;;;29.08;20.77;;;4.80;99.90;;;;;;10365677;28;20380;-77
2021/03/26 06:11:44;;;;;;;29.92;18.60;;;5.00;99.90;;;;;;10365627;28;20483;-78
2021/03/26 06:17:13;;;;;;;32.88;21.30;;;5.20;99.90;;;;;;10365323;28;20487;-78
2021/03/26 06:22:39;;;;;;;28.13;19.10;;;5.40;99.90;;;;;;10347152;28;20135;-78
2021/03/26 06:28:07;;;;;;;30.55;19.40;;;5.60;99.90;;;;;;10338208;28;20050;-78
2021/03/26 06:33:38;;;;;;;28.15;18.40;;;5.80;99.90;;;;;;10346711;28;20054;-78
2021/03/26 06:39:14;;;;;;;30.95;20.70;;;5.80;99.90;;;;;;10323347;28;20494;-77
2021/03/26 06:44:56;;;;;;;27.23;17.67;;;6.10;99.90;;;;;;10358903;28;20527;-78
2021/03/26 06:50:09;;;;;;;26.85;16.95;;;6.60;99.90;;;;;;10358100;28;20503;-78
2021/03/26 06:55:20;;;;;;;29.40;17.70;;;6.90;99.90;;;;;;10365425;28;20101;-78
2021/03/26 07:00:43;;;;;;;25.63;17.85;;;7.30;99.90;;;;;;10379056;28;20145;-78
2021/03/26 07:06:07;;;;;;;27.15;17.83;;;7.40;99.90;;;;;;10365641;28;20054;-78
2021/03/26 07:11:40;;;;;;;35.22;19.15;;;7.60;99.90;;;;;;10365131;28;20056;-78
2021/03/26 07:16:47;;;;;;;30.02;18.48;;;7.60;99.90;;;;;;10364512;28;20093;-78
2021/03/26 07:22:27;;;;;;;28.05;17.75;;;7.30;99.90;;;;;;10364038;28;20467;-78
2021/03/26 07:27:56;;;;;;;24.55;16.48;;;7.30;99.90;;;;;;10319483;28;20096;-78
2021/03/26 07:33:28;;;;;;;25.10;17.90;;;7.50;99.90;;;;;;10346398;28;20527;-78
2021/03/26 07:38:55;;;;;;;32.47;22.00;;;7.80;99.90;;;;;;10371552;28;20431;-77
2021/03/26 07:44:02;;;;;;;29.58;18.85;;;8.10;99.90;;;;;;10371230;28;20104;-77
2021/03/26 07:49:25;;;;;;;36.30;25.85;;;8.10;99.90;;;;;;10371159;28;20561;-77
2021/03/26 07:54:43;;;;;;;32.50;25.30;;;8.70;99.90;;;;;;10370715;28;20045;-78
2021/03/26 08:00:05;;;;;;;35.35;25.08;;;9.40;99.90;;;;;;10370713;28;20078;-77
2021/03/26 08:05:19;;;;;;;33.70;23.80;;;9.60;99.90;;;;;;10353695;28;20053;-78
2021/03/26 08:10:35;;;;;;;37.80;24.85;;;10.60;99.90;;;;;;10330399;28;20157;-78
2021/03/26 08:16:02;;;;;;;35.97;22.98;;;10.80;99.90;;;;;;10354723;28;20065;-78
2021/03/26 08:21:12;;;;;;;31.98;24.00;;;11.10;99.90;;;;;;10369947;28;20057;-78
2021/03/26 08:26:45;;;;;;;36.80;25.13;;;11.10;99.90;;;;;;10367257;28;20435;-78
2021/03/26 08:32:23;;;;;;;33.30;22.63;;;10.90;99.90;;;;;;10369855;28;20094;-78
2021/03/26 08:37:34;;;;;;;31.63;23.88;;;10.60;99.90;;;;;;10369413;28;20129;-78
2021/03/26 08:42:41;;;;;;;37.88;24.27;;;11.30;99.90;;;;;;10369300;28;20148;-78
2021/03/26 08:47:52;;;;;;;32.00;23.27;;;11.60;99.90;;;;;;10368956;28;20076;-79
2021/03/26 08:53:01;;;;;;;33.78;22.63;;;11.80;99.90;;;;;;10351498;28;20050;-78
2021/03/26 08:58:35;;;;;;;33.35;24.33;;;12.00;99.90;;;;;;10369019;28;20054;-78
2021/03/26 09:03:57;;;;;;;38.22;23.70;;;12.00;99.90;;;;;;10368351;28;20052;-78
2021/03/26 09:09:22;;;;;;;29.85;23.08;;;12.40;99.90;;;;;;10367329;28;20054;-76
2021/03/26 09:14:48;;;;;;;31.50;22.15;;;12.60;99.90;;;;;;10365249;28;20058;-76
2021/03/26 09:20:34;;;;;;;28.48;20.33;;;12.80;99.90;;;;;;10325605;28;20054;-76
2021/03/26 09:25:46;;;;;;;19.92;13.27;;;13.40;99.90;;;;;;10300864;28;20062;-75
2021/03/26 09:30:58;;;;;;;21.30;12.27;;;14.00;95.90;;;;;;10307996;28;20133;-76
2021/03/26 09:36:02;;;;;;;16.80;9.70;;;14.50;92.20;;;;;;10319912;28;20062;-76
2021/03/26 09:41:24;;;;;;;14.63;9.95;;;14.80;84.50;;;;;;10324730;28;20074;-76
2021/03/26 09:46:41;;;;;;;16.50;9.68;;;15.40;79.30;;;;;;10307112;28;20082;-76
2021/03/26 09:51:47;;;;;;;14.10;8.80;;;15.00;77.40;;;;;;10321647;28;20408;-78
2021/03/26 09:57:13;;;;;;;12.00;7.80;;;15.10;78.00;;;;;;10320127;28;20575;-78
2021/03/26 10:02:29;;;;;;;9.52;6.05;;;15.20;69.90;;;;;;10325631;28;20078;-78
2021/03/26 10:07:46;;;;;;;9.77;5.25;;;14.70;67.30;;;;;;10325070;28;20050;-78
2021/03/26 10:12:52;;;;;;;9.35;5.20;;;14.70;66.70;;;;;;10325393;28;20108;-78
2021/03/26 10:18:12;;;;;;;9.80;5.00;;;15.00;66.00;;;;;;10335256;28;20093;-78
2021/03/26 10:23:47;;;;;;;10.02;5.22;;;14.60;64.30;;;;;;10366198;28;20048;-79
2021/03/26 10:29:12;;;;;;;10.93;4.53;;;14.10;64.00;;;;;;10347688;28;20081;-78
2021/03/26 10:34:17;;;;;;;8.82;4.90;;;14.40;63.10;;;;;;10348031;28;20097;-78
2021/03/26 10:39:44;;;;;;;7.10;3.80;;;14.10;64.70;;;;;;10365683;28;20053;-76
2021/03/26 10:45:03;;;;;;;6.15;3.40;;;14.20;61.00;;;;;;10365350;28;20104;-76
2021/03/26 10:50:17;;;;;;;5.40;2.80;;;14.00;61.90;;;;;;10365367;28;20085;-76
2021/03/26 10:55:29;;;;;;;5.10;3.05;;;14.50;60.00;;;;;;10364379;28;20046;-76
2021/03/26 11:00:38;;;;;;;4.20;2.47;;;14.90;59.70;;;;;;10364767;28;20054;-76
2021/03/26 11:05:49;;;;;;;9.32;2.47;;;15.10;58.10;;;;;;10365349;28;20049;-76
2021/03/26 11:11:01;;;;;;;5.57;3.00;;;15.20;56.00;;;;;;10370696;28;20058;-76
2021/03/26 11:16:29;;;;;;;6.85;2.80;;;14.80;55.90;;;;;;10342046;28;20062;-76
2021/03/26 11:21:41;;;;;;;6.22;2.92;;;14.90;54.90;;;;;;10314201;28;20048;-76
2021/03/26 11:26:59;;;;;;;4.63;2.83;;;15.30;54.50;;;;;;10332056;28;20451;-76
2021/03/26 11:32:05;;;;;;;5.47;2.80;;;15.50;54.70;;;;;;10331646;28;20109;-76
2021/03/26 11:37:28;;;;;;;5.65;3.42;;;15.40;55.50;;;;;;10331543;28;20480;-76
2021/03/26 11:42:38;;;;;;;6.25;3.10;;;15.50;54.70;;;;;;10314677;28;20070;-76
2021/03/26 11:47:43;;;;;;;5.05;2.88;;;15.60;53.40;;;;;;10332082;28;20065;-76
2021/03/26 11:52:57;;;;;;;5.07;2.75;;;16.00;53.00;;;;;;10331502;28;20057;-76
2021/03/26 11:58:11;;;;;;;6.43;2.95;;;16.20;51.80;;;;;;10332145;28;20073;-75
2021/03/26 12:03:40;;;;;;;6.78;3.15;;;16.20;51.70;;;;;;10330547;28;20060;-76
2021/03/26 12:09:04;;;;;;;4.72;2.97;;;16.50;51.40;;;;;;10330218;28;20042;-76
2021/03/26 12:14:11;;;;;;;5.38;3.08;;;16.80;50.70;;;;;;10329816;28;20141;-76
2021/03/26 12:19:17;;;;;;;4.40;3.00;;;16.90;49.80;;;;;;10351590;28;20050;-76
2021/03/26 12:24:38;;;;;;;9.82;3.08;;;16.80;49.80;;;;;;10370294;28;20921;-78
2021/03/26 12:30:19;;;;;;;4.88;2.97;;;16.50;49.30;;;;;;10329707;28;20054;-78
2021/03/26 12:35:39;;;;;;;6.70;3.15;;;16.40;49.30;;;;;;10298709;28;20082;-78
2021/03/26 12:40:46;;;;;;;7.73;3.73;;;16.80;48.80;;;;;;10329140;28;20078;-78
2021/03/26 12:45:59;;;;;;;7.10;3.05;;;16.90;49.60;;;;;;10329373;28;20050;-78
2021/03/26 12:51:11;;;;;;;5.30;3.30;;;17.30;49.40;;;;;;10329340;28;20109;-78
2021/03/26 12:56:24;;;;;;;6.20;3.40;;;17.50;48.70;;;;;;10328422;28;20062;-78
2021/03/26 13:01:34;;;;;;;5.75;3.10;;;17.40;48.90;;;;;;10327560;28;20096;-78
2021/03/26 13:06:41;;;;;;;4.57;2.70;;;17.20;48.80;;;;;;10327147;28;20046;-78
2021/03/26 13:11:46;;;;;;;5.93;3.15;;;17.50;48.50;;;;;;10328169;28;20054;-78
2021/03/26 13:16:53;;;;;;;8.60;3.20;;;17.70;47.40;;;;;;10310589;28;20086;-78
2021/03/26 13:22:04;;;;;;;4.97;2.83;;;17.50;47.30;;;;;;10287315;28;20047;-78
2021/03/26 13:27:20;;;;;;;4.68;2.60;;;17.50;46.80;;;;;;10308529;28;20101;-78
2021/03/26 13:32:26;;;;;;;6.75;2.92;;;17.20;47.30;;;;;;10327554;28;20058;-78
2021/03/26 13:37:35;;;;;;;6.50;2.70;;;17.40;47.70;;;;;;10326893;28;20500;-78
2021/03/26 13:43:03;;;;;;;7.40;2.50;;;17.30;47.00;;;;;;10326636;28;20050;-78
2021/03/26 13:48:15;;;;;;;7.72;2.90;;;17.60;46.10;;;;;;10318944;28;20070;-78
2021/03/26 13:53:20;;;;;;;5.28;2.63;;;17.80;46.20;;;;;;10326137;28;20467;-78
2021/03/26 13:58:47;;;;;;;8.48;2.75;;;17.40;46.70;;;;;;10326337;28;20467;-78
2021/03/26 14:03:48;;;;;;;5.50;2.72;;;17.30;47.00;;;;;;10309031;28;20118;-77
2021/03/26 14:08:54;;;;;;;6.40;2.40;;;17.20;46.00;;;;;;10325451;28;20078;-78
2021/03/26 14:13:58;;;;;;;5.30;2.53;;;17.40;46.20;;;;;;10326549;28;20085;-77
2021/03/26 14:19:08;;;;;;;7.32;2.45;;;17.30;46.00;;;;;;10361192;28;20062;-77
2021/03/26 14:24:39;;;;;;;5.93;2.65;;;17.20;46.00;;;;;;10365341;28;20077;-78
2021/03/26 14:29:56;;;;;;;8.38;2.42;;;16.90;46.20;;;;;;10322016;28;20567;-78
2021/03/26 14:35:02;;;;;;;5.30;2.60;;;16.80;46.00;;;;;;10325196;28;20082;-78
2021/03/26 14:40:16;;;;;;;6.93;2.42;;;16.80;46.70;;;;;;10323419;28;20109;-78
2021/03/26 14:45:40;;;;;;;4.22;2.15;;;17.00;46.60;;;;;;10324521;28;20046;-78
2021/03/26 14:50:55;;;;;;;10.40;2.53;;;17.40;45.60;;;;;;10324524;28;20105;-78
2021/03/26 14:56:12;;;;;;;4.60;2.30;;;17.50;44.90;;;;;;10308080;28;20496;-78
2021/03/26 15:01:30;;;;;;;7.50;2.13;;;17.30;45.30;;;;;;10324793;28;20050;-78
2021/03/26 15:06:40;;;;;;;4.70;2.15;;;17.00;45.60;;;;;;10324275;28;20700;-78
2021/03/26 15:12:12;;;;;;;4.97;2.33;;;16.50;46.10;;;;;;10324656;28;20512;-78
2021/03/26 15:17:33;;;;;;;5.40;2.47;;;16.50;46.20;;;;;;10324648;28;20054;-78
2021/03/26 15:22:44;;;;;;;6.78;2.55;;;16.60;46.90;;;;;;10323849;28;20081;-78
2021/03/26 15:28:08;;;;;;;5.88;2.50;;;16.60;46.60;;;;;;10351521;28;20116;-78
2021/03/26 15:33:22;;;;;;;7.55;2.45;;;16.40;46.30;;;;;;10364397;28;20144;-78
2021/03/26 15:38:37;;;;;;;4.32;2.20;;;16.30;46.80;;;;;;10363736;28;20539;-78
2021/03/26 15:43:47;;;;;;;3.50;1.90;;;16.10;47.00;;;;;;10364325;28;20046;-78
2021/03/26 15:49:07;;;;;;;3.47;1.95;;;15.90;47.00;;;;;;10346040;28;20054;-78
2021/03/26 15:54:35;;;;;;;8.45;2.47;;;15.80;47.50;;;;;;10365584;28;20451;-78
2021/03/26 15:59:49;;;;;;;4.32;2.00;;;15.60;47.70;;;;;;10367430;28;20049;-78
2021/03/26 16:05:26;;;;;;;3.20;1.90;;;15.50;48.60;;;;;;10353284;28;20049;-78
2021/03/26 16:10:37;;;;;;;3.17;1.77;;;15.40;48.70;;;;;;10362112;28;20112;-78
2021/03/26 16:15:53;;;;;;;5.20;2.05;;;15.50;48.70;;;;;;10370811;28;20062;-78
2021/03/26 16:21:21;;;;;;;7.65;2.20;;;15.40;48.20;;;;;;10352741;28;20057;-78
2021/03/26 16:26:41;;;;;;;7.00;2.00;;;15.20;48.80;;;;;;10370324;28;20050;-78
2021/03/26 16:32:11;;;;;;;7.13;2.40;;;15.00;49.30;;;;;;10369626;28;20757;-78
2021/03/26 16:37:49;;;;;;;6.03;1.92;;;14.90;49.50;;;;;;10370399;28;20058;-78
2021/03/26 16:43:27;;;;;;;8.77;2.22;;;14.80;50.00;;;;;;10352794;28;20048;-78
2021/03/26 16:48:51;;;;;;;6.20;2.40;;;14.70;49.90;;;;;;10369553;28;20054;-77
2021/03/26 16:54:13;;;;;;;4.10;2.00;;;14.70;50.30;;;;;;10367872;28;20054;-78
2021/03/26 16:59:47;;;;;;;4.30;1.90;;;14.70;50.20;;;;;;10368814;28;20439;-78
2021/03/26 17:05:06;;;;;;;7.75;2.35;;;14.70;50.30;;;;;;10368645;28;20097;-78
2021/03/26 17:10:20;;;;;;;3.72;1.92;;;14.70;50.10;;;;;;10368561;28;20566;-77
2021/03/26 17:15:43;;;;;;;7.00;2.20;;;14.60;50.40;;;;;;10368155;28;20108;-78
2021/03/26 17:21:06;;;;;;;8.68;2.63;;;14.60;50.60;;;;;;10351119;28;20078;-78
2021/03/26 17:26:42;;;;;;;4.28;2.13;;;14.60;50.30;;;;;;10350849;28;20088;-78
2021/03/26 17:32:00;;;;;;;5.22;2.10;;;14.50;50.40;;;;;;10367868;28;20053;-77
2021/03/26 17:37:29;;;;;;;4.47;2.05;;;14.40;51.50;;;;;;10367078;28;20104;-78
2021/03/26 17:43:08;;;;;;;5.30;2.10;;;14.20;51.20;;;;;;10367611;28;20046;-78
2021/03/26 17:48:21;;;;;;;6.50;2.40;;;14.10;51.70;;;;;;10363690;28;20563;-78
2021/03/26 17:53:57;;;;;;;5.30;2.20;;;13.90;52.20;;;;;;10365647;28;20108;-78
2021/03/26 17:58:59;;;;;;;7.35;2.25;;;13.70;52.50;;;;;;10364342;28;20436;-78
2021/03/26 18:04:25;;;;;;;4.30;2.00;;;13.60;53.10;;;;;;10364028;28;20046;-78
2021/03/26 18:09:39;;;;;;;6.57;2.20;;;13.50;53.50;;;;;;10344928;28;20439;-78
2021/03/26 18:15:09;;;;;;;6.72;3.00;;;13.50;53.80;;;;;;10362581;28;20115;-78
2021/03/26 18:20:37;;;;;;;8.20;3.30;;;13.30;54.60;;;;;;10346766;28;20050;-78
2021/03/26 18:25:53;;;;;;;5.57;3.38;;;13.10;54.80;;;;;;10360443;28;20073;-78
2021/03/26 18:31:23;;;;;;;5.78;3.00;;;13.10;55.20;;;;;;10364262;28;20101;-78
2021/03/26 18:36:32;;;;;;;5.85;2.45;;;13.00;55.50;;;;;;10364252;28;20078;-78
2021/03/26 18:42:12;;;;;;;5.53;2.27;;;13.00;55.60;;;;;;10346401;28;20050;-78
2021/03/26 18:47:20;;;;;;;10.45;2.42;;;12.90;56.20;;;;;;10290956;28;20113;-78
2021/03/26 18:52:51;;;;;;;6.38;2.15;;;12.70;56.80;;;;;;10346023;28;20491;-78
2021/03/26 18:58:16;;;;;;;6.82;2.78;;;12.60;57.20;;;;;;10363604;28;20049;-78
2021/03/26 19:03:57;;;;;;;4.57;2.47;;;12.50;57.60;;;;;;10363891;28;20081;-78
2021/03/26 19:09:17;;;;;;;4.93;2.60;;;12.50;58.50;;;;;;10325587;28;20101;-78
2021/03/26 19:14:34;;;;;;;5.20;2.17;;;12.40;58.60;;;;;;10363239;28;20104;-78
2021/03/26 19:19:50;;;;;;;4.88;2.30;;;12.30;59.40;;;;;;10320885;28;20074;-78
2021/03/26 19:25:21;;;;;;;6.75;2.15;;;12.10;60.20;;;;;;10322503;28;20070;-78
2021/03/26 19:30:37;;;;;;;7.82;2.42;;;12.00;61.80;;;;;;10325527;28;20365;-78
2021/03/26 19:35:48;;;;;;;6.10;2.72;;;11.80;62.60;;;;;;10330456;28;20054;-78
2021/03/26 19:40:53;;;;;;;5.20;2.60;;;11.60;63.30;;;;;;10328722;28;20054;-78
2021/03/26 19:46:10;;;;;;;5.40;2.67;;;11.40;64.30;;;;;;10329966;28;20121;-78
2021/03/26 19:51:39;;;;;;;5.57;2.63;;;11.30;66.60;;;;;;10329560;28;20054;-78
2021/03/26 19:57:05;;;;;;;5.43;2.95;;;11.20;68.10;;;;;;10329806;28;20108;-78
2021/03/26 20:02:22;;;;;;;5.80;2.92;;;11.10;69.40;;;;;;10328704;28;20046;-78
2021/03/26 20:08:04;;;;;;;9.63;3.80;;;11.00;71.50;;;;;;10329687;28;20050;-78
2021/03/26 20:13:15;;;;;;;8.27;4.05;;;10.90;72.50;;;;;;10314829;28;20058;-78
2021/03/26 20:18:43;;;;;;;7.72;4.10;;;10.80;75.20;;;;;;10365331;28;20050;-78
2021/03/26 20:24:07;;;;;;;8.05;4.43;;;10.80;77.00;;;;;;10382371;28;20069;-78
2021/03/26 20:29:36;;;;;;;10.18;6.30;;;10.70;78.10;;;;;;10407420;28;20543;-78
2021/03/26 20:34:43;;;;;;;9.40;6.15;;;10.60;79.70;;;;;;10326800;28;20138;-78
2021/03/26 20:40:21;;;;;;;6.75;4.57;;;10.50;82.20;;;;;;10356157;28;20133;-78
2021/03/26 20:45:57;;;;;;;8.00;4.50;;;10.40;83.90;;;;;;10351965;28;20050;-78
2021/03/26 20:51:15;;;;;;;9.40;4.68;;;10.20;87.40;;;;;;10368159;28;20503;-78
2021/03/26 20:56:41;;;;;;;8.35;4.50;;;10.00;90.40;;;;;;10369098;28;20080;-81
2021/03/26 21:01:50;;;;;;;9.73;3.92;;;10.00;91.20;;;;;;10370806;28;20761;-87
2021/03/26 21:07:08;;;;;;;9.52;4.30;;;9.90;92.90;;;;;;10372327;28;20046;-87
2021/03/26 21:12:19;;;;;;;8.65;4.18;;;9.80;93.90;;;;;;10371045;28;20050;-87
2021/03/26 21:18:07;;;;;;;8.30;5.05;;;9.70;95.20;;;;;;10370955;28;20050;-87
2021/03/26 21:23:15;;;;;;;6.85;4.20;;;9.60;96.90;;;;;;10371528;28;20049;-87
2021/03/26 21:28:26;;;;;;;10.95;6.10;;;9.60;97.90;;;;;;10370603;28;20067;-87
2021/03/26 21:34:05;;;;;;;8.98;5.47;;;9.60;99.00;;;;;;10371159;28;20050;-87
2021/03/26 21:39:40;;;;;;;15.73;9.05;;;9.50;99.90;;;;;;10371348;28;20137;-87
2021/03/26 21:45:01;;;;;;;9.80;5.82;;;9.30;99.90;;;;;;10370837;28;20054;-86
2021/03/26 21:50:21;;;;;;;;;;;9.20;99.90;;;;;;10370058;28;20451;-86
2021/03/26 21:55:41;;;;;;;10.20;5.35;;;9.10;99.90;;;;;;10369994;28;20395;-89
2021/03/26 22:01:10;;;;;;;8.00;3.78;;;8.90;99.90;;;;;;10370862;28;20082;-90
2021/03/26 22:06:19;;;;;;;8.20;4.05;;;8.80;99.90;;;;;;10371547;28;20054;-91
2021/03/26 22:11:32;;;;;;;9.77;4.25;;;8.70;99.90;;;;;;10370169;28;20077;-90
2021/03/26 22:17:19;;;;;;;8.02;3.90;;;8.60;99.90;;;;;;10369729;28;20049;-90
2021/03/26 22:28:47;;;;;;;6.07;3.60;;;8.40;99.90;;;;;;10345735;28;20081;-90
2021/03/26 22:34:00;;;;;;;7.65;4.78;;;8.30;99.90;;;;;;10369889;28;20085;-90
2021/03/26 22:39:10;;;;;;;18.60;11.88;;;8.30;99.90;;;;;;10369127;28;20882;-90
2021/03/26 22:44:21;;;;;;;15.43;9.63;;;8.30;99.90;;;;;;10352630;28;20081;-89
2021/03/26 22:49:22;;;;;;;;;;;8.30;99.90;;;;;;10369204;28;20459;-90
2021/03/26 22:54:30;;;;;;;;;;;8.30;99.90;;;;;;10369592;28;19929;-90
2021/03/26 22:59:58;;;;;;;10.52;4.78;;;8.30;99.90;;;;;;10375325;28;20421;-90
2021/03/26 23:05:22;;;;;;;8.40;3.88;;;8.30;99.90;;;;;;10371736;28;20575;-90
2021/03/26 23:10:31;;;;;;;6.65;3.60;;;8.20;99.90;;;;;;10359845;28;20464;-89
2021/03/26 23:15:45;;;;;;;9.50;5.45;;;8.10;99.90;;;;;;10376868;28;20519;-89
2021/03/26 23:20:56;;;;;;;9.55;5.65;;;8.10;99.90;;;;;;10377391;28;20104;-90
2021/03/26 23:26:06;;;;;;;10.88;5.97;;;8.10;99.90;;;;;;10376513;28;20100;-90
2021/03/26 23:31:09;;;;;;;9.00;4.03;;;7.90;99.90;;;;;;10376774;28;20049;-90
2021/03/26 23:36:39;;;;;;;6.95;4.00;;;7.80;99.90;;;;;;10376743;28;20077;-90
2021/03/26 23:42:05;;;;;;;9.95;3.42;;;7.70;99.90;;;;;;10375497;28;20053;-89
2021/03/26 23:47:20;;;;;;;8.25;4.40;;;7.60;99.90;;;;;;10358348;28;20136;-89
2021/03/26 23:52:42;;;;;;;12.68;4.22;;;7.40;99.90;;;;;;10375019;28;20084;-88
2021/03/26 23:57:45;;;;;;;8.00;4.40;;;7.50;99.90;;;;;;10372723;28;20072;-89
